Time;durP1;ratioP1;P1;durP2;ratioP2;P2;SDS_P1;SDS_P2;PMS_P1;PMS_P2;Temp;Humidity;BMP_temperature;BMP_pressure;BME280_temperature;BME280_humidity;BME280_pressure;Samples;Min_cycle;Max_cycle;Signal;HPM_P1;HPM_P2
2023/12/24 00:01:59;;;;;;;35.05;9.45;;;;;;;;;;5028528;28;20076;-50
2023/12/24 00:04:25;;;;;;;18.58;10.60;;;;;;;;;;5028578;28;20061;-47
2023/12/24 00:06:51;;;;;;;14.10;9.40;;;;;;;;;;5027584;28;20029;-50
2023/12/24 00:09:17;;;;;;;17.90;13.40;;;;;;;;;;5026937;28;20022;-47
2023/12/24 00:11:43;;;;;;;19.95;15.75;;;;;;;;;;5026593;28;20400;-49
2023/12/24 00:14:09;;;;;;;16.48;14.40;;;;;;;;;;5027124;28;20117;-52
2023/12/24 00:16:39;;;;;;;16.60;13.98;;;;;;;;;;5027692;28;20026;-50
2023/12/24 00:19:09;;;;;;;17.10;15.40;;;;;;;;;;4795759;28;10000876;-51
2023/12/24 00:21:35;;;;;;;21.58;19.30;;;;;;;;;;5025803;28;20309;-53
2023/12/24 00:24:01;;;;;;;19.58;17.63;;;;;;;;;;5027271;28;20036;-53
2023/12/24 00:26:27;;;;;;;18.70;16.90;;;;;;;;;;5027049;28;20029;-49
2023/12/24 00:28:53;;;;;;;19.52;17.52;;;;;;;;;;5034761;28;20029;-54
2023/12/24 00:31:19;;;;;;;19.70;17.80;;;;;;;;;;5028812;28;20083;-50
2023/12/24 00:33:45;;;;;;;20.83;18.75;;;;;;;;;;5026682;28;20033;-54
2023/12/24 00:36:11;;;;;;;21.95;19.75;;;;;;;;;;5026674;28;20070;-54
2023/12/24 00:38:37;;;;;;;20.02;18.02;;;;;;;;;;5026818;28;20661;-51
2023/12/24 00:41:03;;;;;;;21.73;18.40;;;;;;;;;;5037041;28;20118;-50
2023/12/24 00:43:29;;;;;;;24.02;19.67;;;;;;;;;;5032434;28;20025;-50
2023/12/24 00:45:55;;;;;;;37.35;17.92;;;;;;;;;;5018344;28;20109;-49
2023/12/24 00:48:21;;;;;;;20.52;18.52;;;;;;;;;;5031576;28;20025;-48
2023/12/24 00:50:47;;;;;;;18.95;16.95;;;;;;;;;;5026115;28;20018;-51
2023/12/24 00:53:13;;;;;;;19.65;17.75;;;;;;;;;;5029544;28;20075;-48
2023/12/24 00:55:41;;;;;;;22.75;18.63;;;;;;;;;;5021888;28;20525;-47
2023/12/24 00:58:07;;;;;;;20.02;18.05;;;;;;;;;;5030805;28;20497;-51
2023/12/24 01:00:33;;;;;;;20.77;18.88;;;;;;;;;;5033494;28;20115;-52
2023/12/24 01:02:59;;;;;;;24.27;21.75;;;;;;;;;;5032805;28;20185;-49
2023/12/24 01:05:25;;;;;;;19.77;17.88;;;;;;;;;;5030651;28;20068;-52
2023/12/24 01:07:51;;;;;;;20.70;18.77;;;;;;;;;;5032790;28;20434;-53
2023/12/24 01:10:17;;;;;;;20.08;18.08;;;;;;;;;;5031566;28;20021;-49
2023/12/24 01:12:43;;;;;;;18.13;16.23;;;;;;;;;;5032537;28;20040;-47
2023/12/24 01:15:09;;;;;;;17.27;15.48;;;;;;;;;;5032672;28;20025;-50
2023/12/24 01:17:35;;;;;;;15.95;14.25;;;;;;;;;;5033121;28;20052;-50
2023/12/24 01:20:01;;;;;;;16.40;14.55;;;;;;;;;;5032984;28;20025;-50
2023/12/24 01:22:27;;;;;;;18.15;15.43;;;;;;;;;;5032498;28;20395;-52
2023/12/24 01:24:53;;;;;;;15.65;13.95;;;;;;;;;;5032794;28;20108;-53
2023/12/24 01:27:19;;;;;;;16.17;14.32;;;;;;;;;;5032454;28;20021;-50
2023/12/24 01:29:45;;;;;;;16.10;13.65;;;;;;;;;;5032681;28;20649;-51
2023/12/24 01:32:11;;;;;;;15.35;13.65;;;;;;;;;;5032508;28;20096;-54
2023/12/24 01:34:37;;;;;;;15.80;14.10;;;;;;;;;;5032701;28;20029;-50
2023/12/24 01:37:03;;;;;;;15.93;14.23;;;;;;;;;;5032642;28;20471;-51
2023/12/24 01:39:29;;;;;;;15.70;14.00;;;;;;;;;;5032517;28;20030;-53
2023/12/24 01:41:55;;;;;;;16.25;14.55;;;;;;;;;;5032391;28;20029;-53
2023/12/24 01:44:21;;;;;;;16.15;14.45;;;;;;;;;;5032586;28;20028;-49
2023/12/24 01:46:47;;;;;;;18.90;16.90;;;;;;;;;;5032619;28;20033;-49
2023/12/24 01:49:15;;;;;;;16.90;15.05;;;;;;;;;;5032418;28;20156;-48
2023/12/24 01:51:41;;;;;;;16.08;13.85;;;;;;;;;;5032488;28;20028;-50
2023/12/24 01:54:07;;;;;;;15.35;13.63;;;;;;;;;;5032773;28;20187;-47
2023/12/24 01:56:33;;;;;;;14.88;12.65;;;;;;;;;;5033052;28;20348;-47
2023/12/24 01:59:00;;;;;;;26.70;14.82;;;;;;;;;;5032488;28;20487;-47
2023/12/24 02:01:27;;;;;;;16.20;12.73;;;;;;;;;;5032183;28;20414;-50
2023/12/24 02:03:53;;;;;;;15.38;11.77;;;;;;;;;;5032085;28;20133;-50
2023/12/24 02:06:19;;;;;;;15.10;11.00;;;;;;;;;;5032234;28;20017;-53
2023/12/24 02:08:45;;;;;;;15.10;11.40;;;;;;;;;;5032345;28;20041;-47
2023/12/24 02:11:12;;;;;;;14.00;9.77;;;;;;;;;;5032124;28;20033;-49
2023/12/24 02:13:38;;;;;;;14.90;11.10;;;;;;;;;;5032017;28;20065;-51
2023/12/24 02:16:05;;;;;;;14.02;10.00;;;;;;;;;;5031955;28;20053;-52
2023/12/24 02:18:32;;;;;;;14.32;9.75;;;;;;;;;;5031889;28;20072;-48
2023/12/24 02:21:05;;;;;;;13.45;8.10;;;;;;;;;;5031604;28;20025;-52
2023/12/24 02:23:31;;;;;;;12.82;7.60;;;;;;;;;;5030343;28;20030;-50
2023/12/24 02:25:59;;;;;;;13.82;8.73;;;;;;;;;;5031513;28;20097;-49
2023/12/24 02:28:26;;;;;;;12.10;7.65;;;;;;;;;;5031664;28;20025;-50
2023/12/24 02:30:53;;;;;;;13.02;6.60;;;;;;;;;;5031629;28;20021;-53
2023/12/24 02:33:20;;;;;;;11.30;6.57;;;;;;;;;;5031690;28;20042;-49
2023/12/24 02:35:47;;;;;;;9.00;5.20;;;;;;;;;;5031656;28;20041;-46
2023/12/24 02:38:14;;;;;;;10.55;6.25;;;;;;;;;;5031835;28;20060;-50
2023/12/24 02:40:40;;;;;;;9.13;5.40;;;;;;;;;;5031229;28;20486;-51
2023/12/24 02:43:08;;;;;;;9.15;5.30;;;;;;;;;;5031244;28;20033;-50
2023/12/24 02:45:34;;;;;;;11.25;6.32;;;;;;;;;;5031230;28;20634;-46
2023/12/24 02:48:00;;;;;;;12.55;6.05;;;;;;;;;;5031359;28;20092;-52
2023/12/24 02:50:26;;;;;;;10.10;5.18;;;;;;;;;;5031054;28;20029;-49
2023/12/24 02:52:52;;;;;;;13.15;6.15;;;;;;;;;;5030856;28;20026;-53
2023/12/24 02:55:18;;;;;;;9.02;5.22;;;;;;;;;;5030809;28;20475;-52
2023/12/24 02:57:44;;;;;;;10.98;5.10;;;;;;;;;;5030730;28;20120;-52
2023/12/24 03:00:11;;;;;;;11.20;5.28;;;;;;;;;;5030696;28;20084;-52
2023/12/24 03:02:37;;;;;;;8.20;4.80;;;;;;;;;;5030905;28;20018;-47
2023/12/24 03:05:03;;;;;;;9.45;5.25;;;;;;;;;;5031350;28;20087;-50
2023/12/24 03:07:29;;;;;;;8.85;4.88;;;;;;;;;;5031026;28;20480;-51
2023/12/24 03:09:55;;;;;;;8.15;4.80;;;;;;;;;;5031133;28;20083;-48
2023/12/24 03:12:21;;;;;;;12.95;5.80;;;;;;;;;;5031045;28;20030;-50
2023/12/24 03:14:47;;;;;;;9.73;5.10;;;;;;;;;;5030711;28;20027;-47
2023/12/24 03:17:13;;;;;;;10.80;5.30;;;;;;;;;;5029877;28;20021;-47
2023/12/24 03:19:39;;;;;;;8.25;4.40;;;;;;;;;;5030885;28;20040;-48
2023/12/24 03:22:05;;;;;;;13.30;5.93;;;;;;;;;;5030323;28;20021;-45
2023/12/24 03:24:31;;;;;;;8.35;4.30;;;;;;;;;;5029196;28;20017;-47
2023/12/24 03:26:57;;;;;;;8.00;4.38;;;;;;;;;;5030664;28;20021;-48
2023/12/24 03:29:23;;;;;;;6.63;3.90;;;;;;;;;;5030671;28;20033;-49
2023/12/24 03:31:49;;;;;;;8.43;4.43;;;;;;;;;;5030193;28;20032;-52
2023/12/24 03:34:15;;;;;;;10.15;4.20;;;;;;;;;;5030616;28;20111;-49
2023/12/24 03:36:41;;;;;;;8.15;4.63;;;;;;;;;;5030621;28;20021;-49
2023/12/24 03:39:07;;;;;;;10.18;5.10;;;;;;;;;;5030428;28;20691;-51
2023/12/24 03:41:33;;;;;;;8.60;4.90;;;;;;;;;;5028967;28;20057;-50
2023/12/24 03:43:59;;;;;;;8.35;4.80;;;;;;;;;;5030231;28;20056;-50
2023/12/24 03:46:27;;;;;;;8.25;4.80;;;;;;;;;;5030080;28;20043;-49
2023/12/24 03:48:53;;;;;;;7.85;4.38;;;;;;;;;;5030173;28;20021;-50
2023/12/24 03:51:20;;;;;;;7.00;4.20;;;;;;;;;;5029964;28;20395;-48
2023/12/24 03:53:46;;;;;;;6.78;4.00;;;;;;;;;;5030156;28;20049;-51
2023/12/24 03:56:12;;;;;;;8.52;4.72;;;;;;;;;;5030358;28;20036;-49
2023/12/24 03:58:38;;;;;;;6.20;3.70;;;;;;;;;;5030077;28;20403;-50
2023/12/24 04:01:10;;;;;;;6.03;3.58;;;;;;;;;;5030047;28;20063;-51
2023/12/24 04:03:37;;;;;;;6.38;3.67;;;;;;;;;;5030166;28;20475;-46
2023/12/24 04:06:10;;;;;;;7.45;4.20;;;;;;;;;;5030171;28;20028;-48
2023/12/24 04:08:36;;;;;;;7.95;4.32;;;;;;;;;;5030053;28;20060;-47
2023/12/24 04:11:02;;;;;;;11.77;6.03;;;;;;;;;;5030060;28;20025;-49
2023/12/24 04:13:28;;;;;;;8.35;5.00;;;;;;;;;;5029444;28;20029;-49
2023/12/24 04:15:54;;;;;;;13.05;7.70;;;;;;;;;;5029791;28;20116;-48
2023/12/24 04:18:19;;;;;;;16.33;14.63;;;;;;;;;;5029806;28;20479;-50
2023/12/24 04:20:45;;;;;;;20.80;18.90;;;;;;;;;;5029575;28;20171;-51
2023/12/24 04:23:11;;;;;;;22.40;20.50;;;;;;;;;;5030083;28;20029;-46
2023/12/24 04:25:38;;;;;;;23.42;21.52;;;;;;;;;;5029983;28;20029;-47
2023/12/24 04:28:04;;;;;;;26.70;24.60;;;;;;;;;;5032953;28;20420;-48
2023/12/24 04:30:30;;;;;;;26.73;24.63;;;;;;;;;;5033710;28;20053;-50
2023/12/24 04:32:56;;;;;;;24.23;22.23;;;;;;;;;;5033998;28;20390;-49
2023/12/24 04:35:22;;;;;;;24.55;22.55;;;;;;;;;;5033622;28;20025;-48
2023/12/24 04:37:48;;;;;;;23.75;21.75;;;;;;;;;;5033531;28;20485;-53
2023/12/24 04:40:14;;;;;;;22.58;20.67;;;;;;;;;;5033571;28;20508;-50
2023/12/24 04:42:40;;;;;;;22.48;20.48;;;;;;;;;;5033160;28;20122;-50
2023/12/24 04:45:06;;;;;;;21.02;19.13;;;;;;;;;;5033417;28;20092;-51
2023/12/24 04:47:32;;;;;;;21.55;19.65;;;;;;;;;;5013914;28;20026;-51
2023/12/24 04:49:59;;;;;;;21.48;19.58;;;;;;;;;;5033259;28;20025;-50
2023/12/24 04:52:25;;;;;;;21.45;19.55;;;;;;;;;;5032773;28;20499;-50
2023/12/24 04:54:51;;;;;;;20.90;19.00;;;;;;;;;;5011728;28;20037;-52
2023/12/24 04:57:17;;;;;;;21.23;19.23;;;;;;;;;;5029236;28;20388;-50
2023/12/24 04:59:43;;;;;;;21.25;19.35;;;;;;;;;;5032915;28;20120;-48
2023/12/24 05:02:08;;;;;;;19.02;17.23;;;;;;;;;;5032843;28;20033;-48
2023/12/24 05:04:35;;;;;;;20.42;18.63;;;;;;;;;;5032949;28;20100;-52
2023/12/24 05:07:01;;;;;;;21.35;19.45;;;;;;;;;;5033045;28;20022;-51
2023/12/24 05:09:27;;;;;;;22.63;20.73;;;;;;;;;;5032994;28;20025;-47
2023/12/24 05:11:53;;;;;;;23.15;21.25;;;;;;;;;;5011589;28;20080;-50
2023/12/24 05:14:19;;;;;;;20.63;18.83;;;;;;;;;;5029454;28;20032;-49
2023/12/24 05:16:45;;;;;;;18.77;16.98;;;;;;;;;;5032930;28;20017;-49
2023/12/24 05:19:11;;;;;;;19.67;17.88;;;;;;;;;;5032862;28;20498;-50
2023/12/24 05:21:37;;;;;;;18.13;16.33;;;;;;;;;;5032746;28;20022;-46
2023/12/24 05:24:03;;;;;;;17.80;16.10;;;;;;;;;;5032721;28;20033;-47
2023/12/24 05:26:29;;;;;;;16.92;15.23;;;;;;;;;;5032817;28;20021;-52
2023/12/24 05:28:55;;;;;;;16.98;15.27;;;;;;;;;;5032669;28;20080;-52
2023/12/24 05:31:21;;;;;;;17.52;15.82;;;;;;;;;;5032395;28;20033;-52
2023/12/24 05:33:47;;;;;;;20.25;18.40;;;;;;;;;;5032595;28;20095;-53
2023/12/24 05:36:13;;;;;;;18.70;16.90;;;;;;;;;;5032651;28;20114;-52
2023/12/24 05:38:40;;;;;;;17.45;15.75;;;;;;;;;;5032141;28;20030;-47
2023/12/24 05:41:08;;;;;;;17.10;15.40;;;;;;;;;;5032530;28;20109;-49
2023/12/24 05:43:34;;;;;;;;;;;;;;;;;;5032969;28;20026;-47
2023/12/24 05:46:00;;;;;;;18.10;16.40;;;;;;;;;;5032659;28;19996;-48
2023/12/24 05:48:26;;;;;;;18.27;16.48;;;;;;;;;;5032397;28;20017;-49
2023/12/24 05:50:52;;;;;;;33.08;18.17;;;;;;;;;;5032000;28;20029;-48
2023/12/24 05:53:18;;;;;;;18.50;16.70;;;;;;;;;;5032204;28;20040;-51
2023/12/24 05:55:44;;;;;;;18.80;17.00;;;;;;;;;;5032245;28;20025;-49
2023/12/24 05:58:10;;;;;;;17.75;16.05;;;;;;;;;;5032338;28;20029;-47
2023/12/24 06:00:36;;;;;;;17.15;15.45;;;;;;;;;;5034141;28;20045;-46
2023/12/24 06:03:03;;;;;;;16.33;14.63;;;;;;;;;;5044018;28;20104;-45
2023/12/24 06:05:29;;;;;;;16.30;14.60;;;;;;;;;;5052520;28;20593;-46
2023/12/24 06:07:55;;;;;;;16.15;14.45;;;;;;;;;;5052237;28;20104;-51
2023/12/24 06:10:21;;;;;;;16.17;14.48;;;;;;;;;;5052163;28;20131;-51
2023/12/24 06:12:51;;;;;;;16.40;14.70;;;;;;;;;;5051698;28;20025;-51
2023/12/24 06:15:18;;;;;;;16.50;14.80;;;;;;;;;;5051860;28;20021;-51
2023/12/24 06:17:43;;;;;;;17.23;15.52;;;;;;;;;;5051992;28;20033;-52
2023/12/24 06:20:10;;;;;;;16.85;15.15;;;;;;;;;;5051801;28;20079;-50
2023/12/24 06:22:36;;;;;;;16.40;14.70;;;;;;;;;;5051388;28;20033;-49
2023/12/24 06:25:02;;;;;;;15.68;13.98;;;;;;;;;;5051502;28;20651;-50
2023/12/24 06:27:28;;;;;;;15.75;14.05;;;;;;;;;;5051588;28;20035;-50
2023/12/24 06:29:54;;;;;;;15.68;13.98;;;;;;;;;;5051361;28;20095;-52
2023/12/24 06:32:20;;;;;;;15.35;13.70;;;;;;;;;;5051296;28;20490;-52
2023/12/24 06:34:46;;;;;;;15.95;14.25;;;;;;;;;;5051467;28;20079;-49
2023/12/24 06:37:12;;;;;;;15.43;13.73;;;;;;;;;;5051302;28;20021;-48
2023/12/24 06:39:39;;;;;;;17.42;15.73;;;;;;;;;;5051270;28;20051;-54
2023/12/24 06:42:05;;;;;;;16.90;15.20;;;;;;;;;;5050970;28;20063;-51
2023/12/24 06:44:31;;;;;;;16.35;14.65;;;;;;;;;;5051303;28;20029;-52
2023/12/24 06:46:57;;;;;;;16.10;14.40;;;;;;;;;;5051521;28;20032;-55
2023/12/24 06:49:23;;;;;;;15.77;14.07;;;;;;;;;;5050724;28;20021;-49
2023/12/24 06:51:49;;;;;;;17.50;15.80;;;;;;;;;;5051371;28;20024;-47
2023/12/24 06:54:15;;;;;;;16.70;15.00;;;;;;;;;;5051300;28;20478;-47
2023/12/24 06:56:41;;;;;;;15.35;13.70;;;;;;;;;;5051297;28;20021;-50
2023/12/24 06:59:07;;;;;;;15.55;13.95;;;;;;;;;;5062819;23;20036;31
2023/12/24 07:01:32;;;;;;;15.70;14.00;;;;;;;;;;4987752;28;20054;-51
2023/12/24 07:03:58;;;;;;;15.20;13.60;;;;;;;;;;4990282;28;20062;-55
2023/12/24 07:06:24;;;;;;;15.60;13.57;;;;;;;;;;4990230;28;20045;-58
2023/12/24 07:08:51;;;;;;;15.77;14.07;;;;;;;;;;4988921;28;20029;-54
2023/12/24 07:11:17;;;;;;;15.25;13.65;;;;;;;;;;4989663;28;20101;-53
2023/12/24 07:13:43;;;;;;;15.00;13.15;;;;;;;;;;4990033;28;20556;-54
2023/12/24 07:16:09;;;;;;;14.98;13.32;;;;;;;;;;4990091;28;20026;-57
2023/12/24 07:18:35;;;;;;;15.65;13.80;;;;;;;;;;4989943;28;20022;-57
2023/12/24 07:21:01;;;;;;;15.27;13.00;;;;;;;;;;4989522;28;20044;-57
2023/12/24 07:23:27;;;;;;;14.88;12.88;;;;;;;;;;4989878;28;20105;-56
2023/12/24 07:25:53;;;;;;;15.27;13.68;;;;;;;;;;4989488;28;20026;-54
2023/12/24 07:28:19;;;;;;;15.20;13.40;;;;;;;;;;4989767;28;20121;-57
2023/12/24 07:30:45;;;;;;;15.63;13.93;;;;;;;;;;4988247;28;20065;-58
2023/12/24 07:33:11;;;;;;;17.98;16.17;;;;;;;;;;4989700;28;20026;-58
2023/12/24 07:35:37;;;;;;;16.35;14.65;;;;;;;;;;4989741;28;20481;-55
2023/12/24 07:38:03;;;;;;;17.08;15.38;;;;;;;;;;4989800;28;20022;-57
2023/12/24 07:40:29;;;;;;;16.77;15.07;;;;;;;;;;4989411;28;20062;-58
2023/12/24 07:42:57;;;;;;;17.30;15.50;;;;;;;;;;4988089;28;20069;-57
2023/12/24 07:45:24;;;;;;;15.85;14.15;;;;;;;;;;4989485;28;20030;-57
2023/12/24 07:47:50;;;;;;;15.80;14.10;;;;;;;;;;4989568;28;20507;-57
2023/12/24 07:50:16;;;;;;;16.05;14.35;;;;;;;;;;4989540;28;20038;-54
2023/12/24 07:52:42;;;;;;;15.20;13.60;;;;;;;;;;4989299;28;20488;-56
2023/12/24 07:55:08;;;;;;;15.73;13.60;;;;;;;;;;4992184;28;20018;-57
2023/12/24 07:57:34;;;;;;;15.85;14.15;;;;;;;;;;4981459;28;20719;-54
2023/12/24 08:00:00;;;;;;;16.83;15.13;;;;;;;;;;4998572;28;20109;-56
2023/12/24 08:02:26;;;;;;;16.45;14.75;;;;;;;;;;5008650;28;20022;-57
2023/12/24 08:04:55;;;;;;;15.93;14.13;;;;;;;;;;4989556;28;20548;-56
2023/12/24 08:07:21;;;;;;;;;;;;;;;;;;4989919;28;20031;-57
2023/12/24 08:09:47;;;;;;;14.70;12.20;;;;;;;;;;4989398;28;20342;-56
2023/12/24 08:12:14;;;;;;;15.43;12.75;;;;;;;;;;4998901;28;20018;-57
2023/12/24 08:14:40;;;;;;;15.40;13.80;;;;;;;;;;5008880;28;20040;-57
2023/12/24 08:17:05;;;;;;;15.18;13.57;;;;;;;;;;5007625;28;20472;-56
2023/12/24 08:19:31;;;;;;;15.70;14.00;;;;;;;;;;5007438;28;20116;-57
2023/12/24 08:21:57;;;;;;;15.30;13.60;;;;;;;;;;5008433;28;20022;-57
2023/12/24 08:24:23;;;;;;;14.85;12.80;;;;;;;;;;5008641;28;20084;-54
2023/12/24 08:26:49;;;;;;;15.00;12.60;;;;;;;;;;5008689;28;20125;-58
2023/12/24 08:29:16;;;;;;;15.02;13.27;;;;;;;;;;4999040;28;20022;-57
2023/12/24 08:31:42;;;;;;;15.13;13.52;;;;;;;;;;4989000;28;20035;-58
2023/12/24 08:34:08;;;;;;;14.90;12.93;;;;;;;;;;4989501;28;20057;-57
2023/12/24 08:36:34;;;;;;;14.70;12.52;;;;;;;;;;4989007;28;20105;-58
2023/12/24 08:39:00;;;;;;;14.90;13.02;;;;;;;;;;4988921;28;20019;-58
2023/12/24 08:41:26;;;;;;;14.95;13.07;;;;;;;;;;4988882;28;20070;-57
2023/12/24 08:43:52;;;;;;;15.77;14.07;;;;;;;;;;4988852;28;20022;-58
2023/12/24 08:46:18;;;;;;;15.20;13.60;;;;;;;;;;4988858;28;20066;-60
2023/12/24 08:48:44;;;;;;;14.80;12.68;;;;;;;;;;4988939;28;20057;-59
2023/12/24 08:51:10;;;;;;;14.88;12.77;;;;;;;;;;4988420;28;20488;-58
2023/12/24 08:53:36;;;;;;;14.80;12.52;;;;;;;;;;4988493;28;20147;-57
2023/12/24 08:56:02;;;;;;;14.82;12.60;;;;;;;;;;4984256;28;20457;-58
2023/12/24 08:58:28;;;;;;;14.63;12.00;;;;;;;;;;4969454;28;20142;-56
2023/12/24 09:00:54;;;;;;;14.68;12.25;;;;;;;;;;4968868;28;20048;-59
2023/12/24 09:03:20;;;;;;;14.80;12.38;;;;;;;;;;4969020;28;20053;-58
2023/12/24 09:05:46;;;;;;;15.00;12.75;;;;;;;;;;4969477;28;20023;-54
2023/12/24 09:08:13;;;;;;;14.70;12.27;;;;;;;;;;4969294;28;20031;-53
2023/12/24 09:10:39;;;;;;;14.65;12.13;;;;;;;;;;4968927;28;20096;-58
2023/12/24 09:13:05;;;;;;;15.10;13.27;;;;;;;;;;4970327;28;20114;-58
2023/12/24 09:15:31;;;;;;;15.35;13.73;;;;;;;;;;4980929;28;20097;-56
2023/12/24 09:17:56;;;;;;;16.15;14.20;;;;;;;;;;4991659;28;20469;-57
2023/12/24 09:20:22;;;;;;;15.45;13.82;;;;;;;;;;4991703;28;20109;-55
2023/12/24 09:22:48;;;;;;;15.15;13.27;;;;;;;;;;4991760;28;20054;-56
2023/12/24 09:25:14;;;;;;;15.45;13.75;;;;;;;;;;4991889;28;20066;-55
2023/12/24 09:27:40;;;;;;;14.90;12.80;;;;;;;;;;4991834;28;20105;-53
2023/12/24 09:30:07;;;;;;;15.40;13.68;;;;;;;;;;4998729;28;20022;-58
2023/12/24 09:32:33;;;;;;;15.55;13.85;;;;;;;;;;4993191;28;20037;-51
2023/12/24 09:34:59;;;;;;;15.57;13.88;;;;;;;;;;4991644;28;20027;-56
2023/12/24 09:37:25;;;;;;;15.30;13.70;;;;;;;;;;4999000;28;20157;-55
2023/12/24 09:39:52;;;;;;;15.05;13.18;;;;;;;;;;4991568;28;20066;-56
2023/12/24 09:42:18;;;;;;;15.20;13.60;;;;;;;;;;4991450;28;20080;-56
2023/12/24 09:44:45;;;;;;;14.80;12.77;;;;;;;;;;4991754;28;20058;-56
2023/12/24 09:47:11;;;;;;;15.77;13.90;;;;;;;;;;4989512;28;20071;-57
2023/12/24 09:49:37;;;;;;;15.77;14.07;;;;;;;;;;4988635;28;20029;-53
2023/12/24 09:52:03;;;;;;;16.10;14.40;;;;;;;;;;4989958;28;20023;-56
2023/12/24 09:54:29;;;;;;;15.77;14.07;;;;;;;;;;4991455;28;20031;-50
2023/12/24 09:56:56;;;;;;;15.38;13.77;;;;;;;;;;4989471;28;20535;-53
2023/12/24 09:59:22;;;;;;;15.48;13.88;;;;;;;;;;4986033;28;20457;-53
2023/12/24 10:01:48;;;;;;;15.77;14.07;;;;;;;;;;4990717;28;20105;-52
2023/12/24 10:04:14;;;;;;;15.80;14.07;;;;;;;;;;4990858;28;20462;-54
2023/12/24 10:06:54;;;;;;;17.80;16.02;;;;;;;;;;4990953;28;20022;-53
2023/12/24 10:09:23;;;;;;;16.50;14.80;;;;;;;;;;4990800;28;20018;-54
2023/12/24 10:12:05;;;;;;;16.50;14.80;;;;;;;;;;4991113;28;20090;-54
2023/12/24 10:14:31;;;;;;;18.08;16.38;;;;;;;;;;4997780;28;20043;-55
2023/12/24 10:17:00;;;;;;;17.60;15.90;;;;;;;;;;4986610;28;20492;-54
2023/12/24 10:19:27;;;;;;;16.92;15.23;;;;;;;;;;4988111;28;20025;-52
2023/12/24 10:22:06;;;;;;;16.63;14.93;;;;;;;;;;4990585;28;20023;-54
2023/12/24 10:24:35;;;;;;;17.15;15.45;;;;;;;;;;4989586;28;20022;-53
2023/12/24 10:27:07;;;;;;;16.92;15.20;;;;;;;;;;4990944;28;20066;-52
2023/12/24 10:29:36;;;;;;;15.43;13.82;;;;;;;;;;4990659;28;20106;-52
2023/12/24 10:32:02;;;;;;;15.32;13.73;;;;;;;;;;4990516;28;20081;-53
2023/12/24 10:34:30;;;;;;;16.30;14.60;;;;;;;;;;4990440;28;20117;-55
2023/12/24 10:36:58;;;;;;;15.00;13.25;;;;;;;;;;4990622;28;20101;-54
2023/12/24 10:39:24;;;;;;;14.80;12.23;;;;;;;;;;4990526;28;20030;-55
2023/12/24 10:41:57;;;;;;;14.70;12.30;;;;;;;;;;4990197;28;20041;-52
2023/12/24 10:44:23;;;;;;;14.48;11.75;;;;;;;;;;4990251;28;20088;-56
2023/12/24 10:46:50;;;;;;;14.90;12.05;;;;;;;;;;4990383;28;20022;-55
2023/12/24 10:49:17;;;;;;;14.57;11.70;;;;;;;;;;4989993;28;20400;-57
2023/12/24 10:51:43;;;;;;;16.67;12.10;;;;;;;;;;4999321;28;20030;-57
2023/12/24 10:54:09;;;;;;;14.95;11.95;;;;;;;;;;5010597;28;20503;-57
2023/12/24 10:56:51;;;;;;;14.20;10.90;;;;;;;;;;4970883;28;20453;-56
2023/12/24 10:59:20;;;;;;;14.70;11.80;;;;;;;;;;4970585;28;20039;-57
2023/12/24 11:01:47;;;;;;;14.40;11.40;;;;;;;;;;4970697;28;20038;-54
2023/12/24 11:04:33;;;;;;;14.48;11.48;;;;;;;;;;4970582;28;20027;-53
2023/12/24 11:07:04;;;;;;;14.93;12.35;;;;;;;;;;4970565;28;20023;-55
2023/12/24 11:09:30;;;;;;;15.10;12.50;;;;;;;;;;4970412;28;20015;-54
2023/12/24 11:11:57;;;;;;;15.20;12.20;;;;;;;;;;4970570;28;20050;-53
2023/12/24 11:14:45;;;;;;;14.50;11.65;;;;;;;;;;4970553;28;20073;-56
2023/12/24 11:17:31;;;;;;;14.60;11.80;;;;;;;;;;4969302;28;20118;-58
2023/12/24 11:20:16;;;;;;;15.25;12.63;;;;;;;;;;4970385;28;20627;-55
2023/12/24 11:23:02;;;;;;;15.00;12.80;;;;;;;;;;4970206;28;20034;-51
2023/12/24 11:25:35;;;;;;;14.70;12.38;;;;;;;;;;4970327;28;20034;-55
2023/12/24 11:28:01;;;;;;;14.85;12.65;;;;;;;;;;4969144;28;20454;-52
2023/12/24 11:30:27;;;;;;;14.75;12.38;;;;;;;;;;4970127;28;20394;-54
2023/12/24 11:32:53;;;;;;;14.90;12.73;;;;;;;;;;4970025;28;20023;-52
2023/12/24 11:35:45;;;;;;;14.90;12.88;;;;;;;;;;4970134;28;20030;-54
2023/12/24 11:38:30;;;;;;;15.40;13.80;;;;;;;;;;4969985;28;20505;-55
2023/12/24 11:41:05;;;;;;;16.67;14.98;;;;;;;;;;4969977;28;20408;-58
2023/12/24 11:43:31;;;;;;;15.27;13.68;;;;;;;;;;4970235;28;20058;-56
2023/12/24 11:45:57;;;;;;;15.00;13.20;;;;;;;;;;4969923;28;20208;-55
2023/12/24 11:48:26;;;;;;;15.70;14.00;;;;;;;;;;4971504;28;20128;-53
2023/12/24 11:51:02;;;;;;;15.35;13.75;;;;;;;;;;4983040;28;20027;-55
2023/12/24 11:53:29;;;;;;;15.73;14.02;;;;;;;;;;4997338;28;20158;-52
2023/12/24 11:56:10;;;;;;;15.20;13.60;;;;;;;;;;4987725;28;20173;-53
2023/12/24 11:58:37;;;;;;;15.40;13.80;;;;;;;;;;4989206;28;20029;-53
2023/12/24 12:01:03;;;;;;;16.98;15.27;;;;;;;;;;4988630;28;20026;-57
2023/12/24 12:03:33;;;;;;;18.83;17.02;;;;;;;;;;4987341;28;20073;-55
2023/12/24 12:05:59;;;;;;;18.85;17.05;;;;;;;;;;4988808;28;20035;-55
2023/12/24 12:08:27;;;;;;;18.17;16.48;;;;;;;;;;4989094;28;20034;-55
2023/12/24 12:10:53;;;;;;;17.73;16.02;;;;;;;;;;4987426;28;20022;-54
2023/12/24 12:13:19;;;;;;;17.08;15.38;;;;;;;;;;4989035;28;20030;-54
2023/12/24 12:15:45;;;;;;;17.33;15.63;;;;;;;;;;4988772;28;20054;-51
2023/12/24 12:18:12;;;;;;;16.25;14.55;;;;;;;;;;4988792;28;20029;-52
2023/12/24 12:20:38;;;;;;;15.27;13.68;;;;;;;;;;4987425;28;20177;-54
2023/12/24 12:23:04;;;;;;;15.60;13.57;;;;;;;;;;4988908;28;20058;-55
2023/12/24 12:25:30;;;;;;;15.00;12.50;;;;;;;;;;4987399;28;20528;-56
2023/12/24 12:27:56;;;;;;;14.80;12.40;;;;;;;;;;4988520;28;20030;-49
2023/12/24 12:30:22;;;;;;;14.88;12.48;;;;;;;;;;4987303;28;20027;-52
2023/12/24 12:32:48;;;;;;;14.68;12.00;;;;;;;;;;4988568;28;20026;-53
2023/12/24 12:35:17;;;;;;;14.30;10.93;;;;;;;;;;4988786;28;20058;-55
2023/12/24 12:37:43;;;;;;;14.50;10.90;;;;;;;;;;4988687;28;20022;-53
2023/12/24 12:40:09;;;;;;;15.20;11.05;;;;;;;;;;4988616;28;20105;-53
2023/12/24 12:42:36;;;;;;;14.10;10.48;;;;;;;;;;4988276;28;20030;-53
2023/12/24 12:45:02;;;;;;;14.20;10.50;;;;;;;;;;4988688;28;20033;-50
2023/12/24 12:47:28;;;;;;;14.90;11.35;;;;;;;;;;4987355;28;20022;-55
2023/12/24 12:49:54;;;;;;;14.45;11.35;;;;;;;;;;4992133;28;20041;-56
2023/12/24 12:52:20;;;;;;;14.55;11.65;;;;;;;;;;4992014;28;20022;-51
2023/12/24 12:54:46;;;;;;;14.75;11.93;;;;;;;;;;4992234;28;20018;-54
2023/12/24 12:57:27;;;;;;;16.02;12.70;;;;;;;;;;4992374;28;20570;-53
2023/12/24 13:00:00;;;;;;;15.43;12.35;;;;;;;;;;5014836;23;20483;-44
2023/12/24 13:02:26;;;;;;;14.90;12.65;;;;;;;;;;4993026;28;20480;-50
2023/12/24 13:04:52;;;;;;;15.10;12.95;;;;;;;;;;4993375;28;20030;-46
2023/12/24 13:07:18;;;;;;;14.75;12.60;;;;;;;;;;4992522;28;20023;-47
2023/12/24 13:09:49;;;;;;;15.48;13.68;;;;;;;;;;4992156;28;20475;-50
2023/12/24 13:12:19;;;;;;;15.20;13.48;;;;;;;;;;4992037;28;20506;-48
2023/12/24 13:14:52;;;;;;;17.25;15.50;;;;;;;;;;4993262;28;20029;-51
2023/12/24 13:17:24;;;;;;;19.80;18.00;;;;;;;;;;4993174;28;20018;-50
2023/12/24 13:19:51;;;;;;;20.67;18.75;;;;;;;;;;4993164;28;20049;-51
2023/12/24 13:22:17;;;;;;;18.80;17.00;;;;;;;;;;4991697;28;20105;-48
2023/12/24 13:24:43;;;;;;;18.02;16.23;;;;;;;;;;4993004;28;20058;-49
2023/12/24 13:27:09;;;;;;;18.10;16.30;;;;;;;;;;4992039;28;20515;-47
2023/12/24 13:29:35;;;;;;;16.05;14.35;;;;;;;;;;4992299;28;20512;-48
2023/12/24 13:32:04;;;;;;;17.33;15.52;;;;;;;;;;4992936;28;20342;-45
2023/12/24 13:34:30;;;;;;;16.00;14.30;;;;;;;;;;4992851;28;20093;-48
2023/12/24 13:36:56;;;;;;;15.45;13.75;;;;;;;;;;4992925;28;20129;-46
2023/12/24 13:39:22;;;;;;;17.30;15.50;;;;;;;;;;4992914;28;20042;-46
2023/12/24 13:41:48;;;;;;;17.05;15.25;;;;;;;;;;4991573;28;20033;-46
2023/12/24 13:44:14;;;;;;;15.10;13.20;;;;;;;;;;4993048;28;20049;-49
2023/12/24 13:46:40;;;;;;;16.38;14.60;;;;;;;;;;4992688;28;20029;-46
2023/12/24 13:49:09;;;;;;;16.05;13.40;;;;;;;;;;4992859;28;20022;-47
2023/12/24 13:51:36;;;;;;;15.60;13.55;;;;;;;;;;4991015;28;20105;-48
2023/12/24 13:54:02;;;;;;;14.80;12.60;;;;;;;;;;4992756;28;20018;-48
2023/12/24 13:56:29;;;;;;;15.10;12.90;;;;;;;;;;4974628;28;20074;-50
2023/12/24 13:58:55;;;;;;;14.82;12.65;;;;;;;;;;4971742;28;20093;-46
2023/12/24 14:01:21;;;;;;;14.82;12.70;;;;;;;;;;4971302;28;20102;-44
2023/12/24 14:03:47;;;;;;;15.00;13.20;;;;;;;;;;4972948;28;20027;-46
2023/12/24 14:06:13;;;;;;;15.10;12.70;;;;;;;;;;4972980;28;20389;-43
2023/12/24 14:08:40;;;;;;;14.65;11.98;;;;;;;;;;4983327;28;20221;-46
2023/12/24 14:11:08;;;;;;;15.60;13.90;;;;;;;;;;4978844;28;20030;-43
2023/12/24 14:13:34;;;;;;;14.80;12.55;;;;;;;;;;4971658;28;20022;-43
2023/12/24 14:16:00;;;;;;;14.40;11.20;;;;;;;;;;4971919;28;20041;-44
2023/12/24 14:18:26;;;;;;;14.40;11.43;;;;;;;;;;4972991;28;20034;-44
2023/12/24 14:20:52;;;;;;;15.20;13.60;;;;;;;;;;4972782;28;20030;-45